3NY8 weather

Suny Health Science Center Heliport
Syracuse, New York, United States

Public forecast

Using degrees Fahrenheit for public forecast. Weather courtesy of forecast.io.

Closest aviation weather report (METAR) to Suny Health Science Center Heliport

Closest report is Syracuse Hancock International Airport, 4.4 nm (8.2 km) NNE. Retrieved 2020/04/02 05:54 UTC (35 minutes ago):

KSYR 020554Z 30005KT 10SM FEW055 FEW260 01/M03 A2991 RMK AO2 SLP128 T00061033 10050 20006 56004

Closest aviation forecast (TAF) to Suny Health Science Center Heliport

Closest forecast is Syracuse Hancock International Airport, 4.4 nm (8.2 km) NNE. Retrieved 2020/04/02 06:39 UTC (0 seconds ago):

TAF KSYR 020535Z 0206/0306 30008KT P6SM FEW050 FM021500 32012G21KT P6SM BKN035 FM030000 32008KT P6SM BKN025